Time;durP1;ratioP1;P1;durP2;ratioP2;P2;SDS_P1;SDS_P2;PMS_P1;PMS_P2;Temp;Humidity;BMP_temperature;BMP_pressure;BME280_temperature;BME280_humidity;BME280_pressure;Samples;Min_cycle;Max_cycle;Signal;HPM_P1;HPM_P2
2022/06/17 00:00:14;;;;;;;358.98;235.70;;;;;;;21.16;61.70;99915.94;412024;24;1222;-78
2022/06/17 00:00:24;;;;;;;361.85;237.23;;;;;;;21.16;61.88;99903.47;409966;24;818;-78
2022/06/17 00:00:35;;;;;;;360.17;237.77;;;;;;;21.16;61.99;99913.28;410006;24;805;-78
2022/06/17 00:00:46;;;;;;;360.83;237.75;;;;;;;21.15;62.00;99912.41;410068;24;1264;-78
2022/06/17 00:00:58;;;;;;;356.48;234.23;;;;;;;21.17;62.29;99909.63;410333;24;782;-78
2022/06/17 00:01:09;;;;;;;356.15;234.32;;;;;;;21.15;62.24;99906.25;411903;24;861;-78
2022/06/17 00:01:20;;;;;;;357.52;232.80;;;;;;;21.17;62.06;99906.97;412007;24;834;-78
2022/06/17 00:01:31;;;;;;;361.23;234.05;;;;;;;21.17;62.09;99913.16;409935;24;1513;-78
2022/06/17 00:01:41;;;;;;;360.70;234.20;;;;;;;21.19;62.18;99907.69;412132;24;763;-78
2022/06/17 00:01:52;;;;;;;358.02;234.75;;;;;;;21.19;62.02;99913.03;413201;23;1361;-78
2022/06/17 00:02:03;;;;;;;357.03;234.63;;;;;;;21.19;62.04;99913.88;413909;23;721;-78
2022/06/17 00:02:13;;;;;;;358.15;233.70;;;;;;;21.19;62.02;99918.34;410270;24;1052;-78
2022/06/17 00:02:24;;;;;;;359.08;233.45;;;;;;;21.19;62.00;99911.22;410138;24;907;-78
2022/06/17 00:02:34;;;;;;;362.77;235.87;;;;;;;21.20;62.31;99909.41;408144;24;1234;-78
2022/06/17 00:02:45;;;;;;;361.47;236.57;;;;;;;21.18;62.10;99906.00;413927;23;1285;-78
2022/06/17 00:02:55;;;;;;;360.70;236.98;;;;;;;21.19;62.32;99915.69;412018;24;814;-78
2022/06/17 00:03:06;;;;;;;359.90;237.47;;;;;;;21.17;62.18;99907.81;414149;23;755;-78
2022/06/17 00:03:17;;;;;;;359.05;236.35;;;;;;;21.18;62.17;99914.84;409801;24;1461;-78
2022/06/17 00:03:29;;;;;;;357.77;234.68;;;;;;;21.16;62.26;99914.13;412085;24;832;-78
2022/06/17 00:03:39;;;;;;;359.92;240.73;;;;;;;21.17;62.51;99909.63;411963;24;1416;-78
2022/06/17 00:03:51;;;;;;;361.33;240.95;;;;;;;21.18;62.26;99909.50;408195;24;747;-78
2022/06/17 00:04:02;;;;;;;359.15;237.18;;;;;;;21.19;62.35;99913.03;413861;23;1460;-78
2022/06/17 00:04:12;;;;;;;358.20;234.03;;;;;;;21.20;61.99;99914.72;413846;23;940;-78
2022/06/17 00:04:22;;;;;;;359.75;236.38;;;;;;;21.20;61.94;99918.22;411976;23;1391;-78
2022/06/17 00:04:33;;;;;;;360.93;237.70;;;;;;;21.19;62.13;99910.38;412052;24;886;-78
2022/06/17 00:04:43;;;;;;;359.58;236.57;;;;;;;21.18;62.13;99908.66;413921;23;783;-78
2022/06/17 00:04:54;;;;;;;359.27;237.27;;;;;;;21.18;62.22;99906.84;413992;23;1108;-78
2022/06/17 00:05:05;;;;;;;358.52;239.93;;;;;;;21.19;62.05;99913.03;414042;23;837;-78
2022/06/17 00:05:16;;;;;;;357.55;238.55;;;;;;;21.18;62.34;99911.31;413902;23;1443;-78
2022/06/17 00:05:26;;;;;;;355.10;233.97;;;;;;;21.18;62.20;99911.31;408110;24;1294;-78
2022/06/17 00:05:37;;;;;;;356.43;235.47;;;;;;;21.19;62.01;99913.03;408168;24;804;-78
2022/06/17 00:05:47;;;;;;;358.97;236.10;;;;;;;21.19;62.33;99918.34;411948;24;1318;-78
2022/06/17 00:06:00;;;;;;;361.70;238.75;;;;;;;21.16;62.18;99908.78;413904;23;1415;-78
2022/06/17 00:06:11;;;;;;;360.15;232.50;;;;;;;21.19;61.89;99911.22;410091;24;850;-78
2022/06/17 00:06:22;;;;;;;358.87;229.50;;;;;;;21.19;62.00;99910.38;407999;24;1222;-78
2022/06/17 00:06:37;;;;;;;355.65;227.95;;;;;;;21.17;61.99;99909.63;410162;24;951;-78
2022/06/17 00:06:55;;;;;;;354.15;229.38;;;;;;;21.16;61.84;99908.78;408305;24;881;-78
2022/06/17 00:07:07;;;;;;;355.00;231.38;;;;;;;21.15;62.24;99911.56;410041;24;1383;-78
2022/06/17 00:07:17;;;;;;;355.73;234.82;;;;;;;21.15;61.91;99914.22;409880;24;1479;-78
2022/06/17 00:07:28;;;;;;;358.40;235.77;;;;;;;21.13;62.23;99905.53;410234;24;1212;-78
2022/06/17 00:07:39;;;;;;;357.02;234.60;;;;;;;21.12;61.73;99906.50;413582;23;1292;-78
2022/06/17 00:07:50;;;;;;;358.13;236.18;;;;;;;21.10;62.01;99898.63;411695;24;869;-78
2022/06/17 00:08:00;;;;;;;358.50;237.27;;;;;;;21.09;61.99;99904.06;411889;23;1295;-78
2022/06/17 00:08:24;;;;;;;366.67;239.73;;;;;;;21.05;62.34;99905.28;412096;24;794;-78
2022/06/17 00:08:37;;;;;;;359.65;230.82;;;;;;;20.98;62.57;99909.41;409959;24;822;-78
2022/06/17 00:08:51;;;;;;;361.45;235.75;;;;;;;20.96;62.86;99900.69;410015;24;1614;-78
2022/06/17 00:09:02;;;;;;;361.23;237.13;;;;;;;20.93;62.75;99901.78;412021;24;925;-78
2022/06/17 00:09:16;;;;;;;360.00;235.83;;;;;;;20.91;62.96;99899.22;412043;24;1084;-78
2022/06/17 00:09:28;;;;;;;357.73;233.90;;;;;;;20.91;62.83;99896.56;412001;24;896;-78
2022/06/17 00:09:38;;;;;;;355.75;232.48;;;;;;;20.93;62.78;99902.63;411969;24;1283;-78
2022/06/17 00:09:48;;;;;;;356.40;234.63;;;;;;;20.92;62.58;99894.75;410083;24;1163;-78
2022/06/17 00:09:59;;;;;;;356.75;236.45;;;;;;;20.93;62.77;99897.31;413872;23;1558;-78
2022/06/17 00:10:24;;;;;;;357.90;240.83;;;;;;;20.95;63.02;99896.34;413975;23;1032;-78
2022/06/17 00:10:34;;;;;;;354.88;233.70;;;;;;;20.94;62.79;99903.47;412144;24;1051;-78
2022/06/17 00:10:45;;;;;;;358.10;236.90;;;;;;;20.91;62.84;99893.91;410199;24;762;-78
2022/06/17 00:10:55;;;;;;;361.37;242.30;;;;;;;20.93;62.98;99902.63;413867;23;1318;-78
2022/06/17 00:11:17;;;;;;;361.58;244.85;;;;;;;20.92;63.10;99895.59;412060;24;763;-78
2022/06/17 00:11:31;;;;;;;359.83;239.77;;;;;;;20.95;63.01;99896.34;409993;24;1392;-78
2022/06/17 00:11:42;;;;;;;360.83;241.68;;;;;;;20.97;62.70;99902.38;412097;24;925;-78
2022/06/17 00:11:52;;;;;;;361.77;243.13;;;;;;;20.97;62.82;99891.72;413937;23;1044;-78
2022/06/17 00:12:04;;;;;;;359.77;236.52;;;;;;;20.98;63.05;99898.75;411925;24;1404;-78
2022/06/17 00:12:14;;;;;;;357.35;235.65;;;;;;;20.97;63.11;99905.88;410173;24;842;-78
2022/06/17 00:12:25;;;;;;;356.63;235.97;;;;;;;20.96;63.08;99900.69;410020;24;1207;-78
2022/06/17 00:12:35;;;;;;;359.73;241.95;;;;;;;20.96;63.20;99896.22;414143;23;1020;-78
2022/06/17 00:12:46;;;;;;;363.63;243.53;;;;;;;20.91;62.87;99896.56;411991;23;1221;-78
2022/06/17 00:12:56;;;;;;;363.40;243.52;;;;;;;20.92;63.33;99900.09;411955;24;1282;-78
2022/06/17 00:13:13;;;;;;;363.10;243.50;;;;;;;20.93;63.35;99902.63;412147;24;1212;-78
2022/06/17 00:13:24;;;;;;;361.85;244.75;;;;;;;20.93;63.03;99896.44;410032;24;809;-78
2022/06/17 00:13:35;;;;;;;362.30;244.82;;;;;;;20.90;62.92;99896.69;411471;24;913;-78
2022/06/17 00:13:45;;;;;;;362.02;242.32;;;;;;;20.90;63.33;99900.19;409931;24;1200;-78
2022/06/17 00:13:55;;;;;;;365.20;242.07;;;;;;;20.90;63.51;99896.69;410076;24;751;-78
2022/06/17 00:14:11;;;;;;;366.90;244.43;;;;;;;20.88;63.33;99896.81;411883;24;1312;-78
2022/06/17 00:14:28;;;;;;;365.92;243.27;;;;;;;20.87;63.92;99903.09;410062;24;947;-78
2022/06/17 00:15:12;;;;;;;355.83;232.15;;;;;;;20.86;63.71;99898.75;406467;24;822;-78
2022/06/17 00:15:21;;;;;;;361.08;240.13;;;;;;;20.87;63.77;99897.78;409952;24;1910;-78
2022/06/17 00:15:23;;;;;;;360.13;239.70;;;;;;;20.86;63.40;99898.75;403138;24;1331;-78
2022/06/17 00:15:33;;;;;;;364.07;244.53;;;;;;;20.86;63.49;99901.41;413863;23;1252;-78
2022/06/17 00:15:45;;;;;;;364.03;243.80;;;;;;;20.86;63.67;99896.09;412271;24;1234;-78
2022/06/17 00:15:56;;;;;;;362.40;243.25;;;;;;;20.87;63.56;99903.09;410072;24;1390;-78
2022/06/17 00:16:13;;;;;;;361.52;244.85;;;;;;;20.89;63.44;99900.31;411949;24;1285;-78
2022/06/17 00:16:24;;;;;;;359.30;241.98;;;;;;;20.89;63.83;99898.50;410031;24;1440;-78
2022/06/17 00:16:34;;;;;;;356.50;238.32;;;;;;;20.91;63.38;99899.22;410173;24;1069;-78
2022/06/17 00:16:45;;;;;;;359.48;242.43;;;;;;;20.92;63.26;99900.94;409995;24;1330;-78
2022/06/17 00:16:55;;;;;;;358.67;242.00;;;;;;;20.92;63.44;99900.94;411932;24;1083;-78
2022/06/17 00:17:09;;;;;;;360.67;242.70;;;;;;;20.92;63.58;99898.25;413925;23;1229;-78
2022/06/17 00:17:19;;;;;;;361.77;241.05;;;;;;;20.90;63.40;99905.53;411963;24;955;-78
2022/06/17 00:17:29;;;;;;;361.90;238.35;;;;;;;20.88;63.73;99894.16;412123;24;739;-78
2022/06/17 00:18:02;;;;;;;360.80;235.97;;;;;;;20.88;63.52;99896.81;410133;24;892;-78
2022/06/17 00:18:13;;;;;;;355.90;236.85;;;;;;;20.87;63.54;99902.25;410095;24;949;-78
2022/06/17 00:18:24;;;;;;;359.60;241.60;;;;;;;20.85;63.97;99897.06;410152;24;1623;-78
2022/06/17 00:18:35;;;;;;;360.95;241.95;;;;;;;20.84;63.98;99905.16;409931;24;1488;-78
2022/06/17 00:18:45;;;;;;;360.27;240.57;;;;;;;20.81;63.76;99892.94;413882;23;1217;-78
2022/06/17 00:18:56;;;;;;;360.97;238.97;;;;;;;20.76;63.67;99897.81;414026;23;1270;-78
2022/06/17 00:19:06;;;;;;;360.88;239.20;;;;;;;20.77;64.20;99899.50;412019;24;926;-78
2022/06/17 00:19:18;;;;;;;362.23;241.13;;;;;;;20.77;64.19;99896.84;410276;24;1004;-78
2022/06/17 00:19:28;;;;;;;359.70;243.95;;;;;;;20.78;64.07;99892.38;409437;24;752;-78
2022/06/17 00:19:39;;;;;;;360.17;247.70;;;;;;;20.79;64.25;99904.69;413737;23;1438;-78
2022/06/17 00:19:49;;;;;;;363.95;249.80;;;;;;;20.79;64.05;99904.69;412105;24;700;-78
2022/06/17 00:19:59;;;;;;;366.50;247.70;;;;;;;20.77;64.19;99902.16;409986;24;1179;-78
2022/06/17 00:20:13;;;;;;;366.23;244.43;;;;;;;20.76;64.22;99903.13;410143;24;807;-78
2022/06/17 00:20:24;;;;;;;360.05;240.20;;;;;;;20.75;64.35;99898.78;412024;24;1466;-78
2022/06/17 00:20:35;;;;;;;359.05;239.23;;;;;;;20.76;64.30;99897.81;411821;24;1238;-78
2022/06/17 00:20:46;;;;;;;361.42;244.20;;;;;;;20.75;64.20;99898.78;414009;23;948;-78
2022/06/17 00:20:56;;;;;;;362.50;245.57;;;;;;;20.73;64.34;99898.03;413939;23;1430;-78
2022/06/17 00:21:11;;;;;;;361.67;245.27;;;;;;;20.76;64.49;99899.63;410205;24;790;-78
2022/06/17 00:21:37;;;;;;;361.08;239.23;;;;;;;20.75;64.53;99898.78;408166;24;1083;-78
2022/06/17 00:21:49;;;;;;;356.15;235.93;;;;;;;20.75;64.83;99898.78;409982;24;937;-78
2022/06/17 00:22:00;;;;;;;357.55;240.10;;;;;;;20.75;64.41;99904.09;414015;23;735;-78
2022/06/17 00:22:11;;;;;;;357.42;243.25;;;;;;;20.77;64.54;99898.66;412002;24;1502;-78
2022/06/17 00:22:21;;;;;;;360.37;244.33;;;;;;;20.75;64.59;99893.44;411936;24;1277;-78
2022/06/17 00:22:32;;;;;;;362.02;244.98;;;;;;;20.77;64.40;99896.00;412058;23;889;-78
2022/06/17 00:22:43;;;;;;;364.60;243.23;;;;;;;20.80;64.71;99901.88;412005;24;1429;-78
2022/06/17 00:22:53;;;;;;;364.50;240.85;;;;;;;20.81;64.49;99905.41;410315;24;1059;-78
2022/06/17 00:23:09;;;;;;;362.97;239.67;;;;;;;20.82;64.45;99905.28;414022;23;905;-78
2022/06/17 00:23:20;;;;;;;359.00;237.98;;;;;;;20.84;64.06;99900.69;410086;24;1306;-78
2022/06/17 00:23:31;;;;;;;361.48;240.85;;;;;;;20.81;64.03;99894.75;410058;24;1250;-78
2022/06/17 00:23:41;;;;;;;363.93;243.20;;;;;;;20.75;64.01;99893.44;409928;24;1341;-78
2022/06/17 00:23:51;;;;;;;363.05;242.85;;;;;;;20.77;64.07;99904.81;412104;24;790;-78
2022/06/17 00:24:22;;;;;;;361.97;241.77;;;;;;;20.73;64.54;99900.72;412050;24;1198;-78
2022/06/17 00:24:33;;;;;;;357.38;241.68;;;;;;;20.71;64.49;99902.63;409993;24;946;-78
2022/06/17 00:24:43;;;;;;;360.50;240.55;;;;;;;20.72;64.50;99899.00;412021;24;1388;-78
2022/06/17 00:24:54;;;;;;;362.80;242.47;;;;;;;20.71;64.60;99899.97;413899;23;1256;-78
2022/06/17 00:25:13;;;;;;;363.63;241.05;;;;;;;20.70;64.54;99900.94;413985;23;1246;-78
2022/06/17 00:25:32;;;;;;;360.50;244.00;;;;;;;20.72;64.23;99899.00;409850;24;889;-78
2022/06/17 00:25:45;;;;;;;365.92;248.75;;;;;;;20.72;64.55;99895.50;408122;24;842;-78
2022/06/17 00:25:55;;;;;;;366.67;248.90;;;;;;;20.72;64.35;99899.00;410240;24;858;-78
2022/06/17 00:26:06;;;;;;;359.53;247.10;;;;;;;20.74;64.76;99896.22;410361;24;778;-78
2022/06/17 00:26:16;;;;;;;357.98;244.02;;;;;;;20.74;64.58;99902.41;412044;24;1250;-78
2022/06/17 00:26:27;;;;;;;357.57;242.27;;;;;;;20.75;64.33;99890.78;413853;23;1286;-78
2022/06/17 00:26:37;;;;;;;358.25;243.32;;;;;;;20.74;64.42;99897.06;411994;24;1234;-79
2022/06/17 00:26:48;;;;;;;362.40;244.63;;;;;;;20.74;64.82;99897.06;411877;24;1475;-79
2022/06/17 00:26:58;;;;;;;365.10;245.90;;;;;;;20.74;64.44;99897.06;409908;23;1436;-79
2022/06/17 00:27:09;;;;;;;366.67;245.90;;;;;;;20.74;64.63;99897.06;410005;24;1231;-79
2022/06/17 00:27:20;;;;;;;362.88;244.98;;;;;;;20.75;64.14;99893.44;413861;23;864;-79
2022/06/17 00:27:30;;;;;;;363.57;245.77;;;;;;;20.76;64.46;99895.16;412194;24;854;-79
2022/06/17 00:27:41;;;;;;;364.23;244.73;;;;;;;20.75;64.42;99893.44;409922;23;1244;-79
2022/06/17 00:27:52;;;;;;;365.60;245.25;;;;;;;20.74;64.62;99894.41;410141;24;1416;-79
2022/06/17 00:28:02;;;;;;;366.02;241.73;;;;;;;20.73;64.54;99882.09;410414;24;823;-79
2022/06/17 00:28:20;;;;;;;364.73;242.45;;;;;;;20.74;64.28;99894.41;410083;24;878;-79
2022/06/17 00:28:31;;;;;;;359.33;242.35;;;;;;;20.75;64.38;99895.25;412033;24;957;-79
2022/06/17 00:28:41;;;;;;;360.63;241.20;;;;;;;20.73;64.63;99890.06;410138;24;1251;-79
2022/06/17 00:28:52;;;;;;;363.80;243.82;;;;;;;20.70;64.24;99892.97;408446;24;787;-79
2022/06/17 00:29:02;;;;;;;365.27;243.57;;;;;;;20.71;64.33;99884.00;412251;24;822;-79
2022/06/17 00:29:19;;;;;;;364.13;244.75;;;;;;;20.71;64.58;99894.66;410769;24;858;-79
2022/06/17 00:29:29;;;;;;;362.45;246.73;;;;;;;20.70;64.19;99900.94;410050;24;1426;-79
2022/06/17 00:29:40;;;;;;;361.00;247.10;;;;;;;20.68;64.58;99897.56;412102;24;778;-79
2022/06/17 00:29:50;;;;;;;362.07;248.00;;;;;;;20.66;64.80;99894.16;410180;24;1381;-79
2022/06/17 00:30:01;;;;;;;364.35;248.88;;;;;;;20.62;64.79;99898.03;408319;24;743;-79
2022/06/17 00:30:16;;;;;;;363.98;250.65;;;;;;;20.62;64.78;99898.03;412557;24;1314;-79
2022/06/17 00:30:29;;;;;;;363.65;248.73;;;;;;;20.63;64.89;99893.56;410660;24;886;-79
2022/06/17 00:30:39;;;;;;;361.67;243.48;;;;;;;20.65;64.81;99899.59;412518;24;826;-79
2022/06/17 00:30:50;;;;;;;360.13;237.33;;;;;;;20.63;65.03;99902.38;411908;24;1305;-79
2022/06/17 00:31:01;;;;;;;363.00;240.40;;;;;;;20.64;65.25;99892.59;410128;24;1213;-79
2022/06/17 00:31:11;;;;;;;361.90;239.07;;;;;;;20.68;65.06;99900.22;409952;24;928;-79
2022/06/17 00:31:22;;;;;;;359.87;236.00;;;;;;;20.68;65.02;99902.88;409501;24;1186;-79
2022/06/17 00:31:32;;;;;;;356.83;234.02;;;;;;;20.67;64.82;99895.84;409968;24;838;-79
2022/06/17 00:31:42;;;;;;;361.80;239.30;;;;;;;20.67;64.92;99900.34;411930;24;1103;-79
2022/06/17 00:31:53;;;;;;;364.45;245.35;;;;;;;20.67;64.89;99900.34;409964;24;1308;-79
2022/06/17 00:32:05;;;;;;;367.43;249.17;;;;;;;20.68;65.14;99902.88;411998;24;861;-79
2022/06/17 00:32:16;;;;;;;364.05;245.15;;;;;;;20.70;64.95;99897.44;412044;24;899;-79
2022/06/17 00:32:26;;;;;;;362.95;243.93;;;;;;;20.69;65.03;99901.91;411977;24;1199;-79
2022/06/17 00:32:36;;;;;;;363.60;243.40;;;;;;;20.70;64.85;99906.25;412130;24;1031;-79
2022/06/17 00:32:47;;;;;;;363.17;244.83;;;;;;;20.71;64.71;99907.13;412111;24;1019;-79
2022/06/17 00:32:59;;;;;;;364.07;245.67;;;;;;;20.69;64.73;99903.72;410209;24;1190;-79
2022/06/17 00:33:09;;;;;;;363.33;242.90;;;;;;;20.67;65.26;99901.19;411961;24;869;-79
2022/06/17 00:33:20;;;;;;;361.13;239.32;;;;;;;20.68;65.11;99908.19;410403;24;775;-79
2022/06/17 00:33:30;;;;;;;360.93;239.43;;;;;;;20.68;65.26;99902.88;410174;24;790;-79
2022/06/17 00:33:41;;;;;;;358.42;239.30;;;;;;;20.68;65.15;99902.88;410113;24;1214;-79
2022/06/17 00:33:52;;;;;;;358.65;239.45;;;;;;;20.68;65.39;99897.56;410072;24;1298;-79
2022/06/17 00:34:05;;;;;;;359.63;239.37;;;;;;;20.70;64.97;99900.94;410336;24;1202;-79
2022/06/17 00:34:16;;;;;;;363.55;241.90;;;;;;;20.70;65.06;99906.25;411923;24;1032;-79
2022/06/17 00:34:26;;;;;;;367.53;244.20;;;;;;;20.70;65.25;99894.78;412065;24;1197;-79
2022/06/17 00:34:37;;;;;;;368.30;241.23;;;;;;;20.70;65.28;99900.09;410127;24;1914;-79
2022/06/17 00:34:50;;;;;;;368.57;244.40;;;;;;;20.71;65.40;99901.78;413901;23;1169;-79
2022/06/17 00:35:04;;;;;;;367.63;244.75;;;;;;;20.72;65.57;99903.47;412003;24;1285;-79
2022/06/17 00:35:15;;;;;;;366.90;244.75;;;;;;;20.71;65.11;99899.97;411928;23;1313;-79
2022/06/17 00:35:29;;;;;;;362.92;242.02;;;;;;;20.73;65.46;99894.53;408105;24;1307;-79
2022/06/17 00:35:42;;;;;;;362.25;243.90;;;;;;;20.72;65.34;99898.16;414297;23;941;-79
2022/06/17 00:35:54;;;;;;;357.17;241.98;;;;;;;20.71;65.20;99905.28;412308;24;1644;-79
2022/06/17 00:36:05;;;;;;;356.02;241.60;;;;;;;20.70;65.19;99895.63;412186;24;1382;-79
2022/06/17 00:36:17;;;;;;;358.23;242.55;;;;;;;20.71;65.52;99899.13;411921;24;1249;-79
2022/06/17 00:36:27;;;;;;;359.15;244.30;;;;;;;20.71;65.45;99902.63;410052;24;1262;-79
2022/06/17 00:36:38;;;;;;;361.47;248.50;;;;;;;20.71;65.68;99897.31;408445;24;1078;-79
2022/06/17 00:36:49;;;;;;;360.25;247.02;;;;;;;20.70;65.36;99898.28;409889;24;1255;-79
2022/06/17 00:37:00;;;;;;;362.73;246.70;;;;;;;20.72;65.10;99899.00;410223;24;941;-79
2022/06/17 00:37:12;;;;;;;363.48;240.32;;;;;;;20.72;65.21;99901.66;407797;24;561;-79
2022/06/17 00:37:23;;;;;;;364.05;242.35;;;;;;;20.73;65.68;99900.72;411169;24;918;-79
2022/06/17 00:37:34;;;;;;;364.98;243.85;;;;;;;20.73;65.52;99902.53;409925;24;1284;-79
2022/06/17 00:37:44;;;;;;;364.90;246.27;;;;;;;20.74;65.27;99899.75;410100;24;1278;-79
2022/06/17 00:37:55;;;;;;;364.10;243.27;;;;;;;20.75;65.15;99898.78;413644;23;1248;-79
2022/06/17 00:38:05;;;;;;;360.25;242.02;;;;;;;20.74;65.36;99902.41;411954;23;1268;-79
2022/06/17 00:38:19;;;;;;;361.17;241.57;;;;;;;20.76;65.06;99900.47;410059;24;1287;-79
2022/06/17 00:38:31;;;;;;;361.25;239.90;;;;;;;20.77;65.66;99902.16;410186;24;908;-79
2022/06/17 00:38:41;;;;;;;361.33;239.05;;;;;;;20.77;65.45;99901.31;415788;23;1475;-79
2022/06/17 00:38:52;;;;;;;361.80;242.20;;;;;;;20.76;65.42;99903.13;414066;23;840;-79
2022/06/17 00:39:09;;;;;;;362.35;239.70;;;;;;;20.72;65.48;99899.00;412032;24;930;-79
2022/06/17 00:39:23;;;;;;;361.25;236.32;;;;;;;20.72;65.29;99901.66;410057;24;1362;-79
2022/06/17 00:39:33;;;;;;;361.23;240.05;;;;;;;20.70;65.65;99900.09;408381;24;1353;-79
2022/06/17 00:39:44;;;;;;;364.25;239.75;;;;;;;20.68;65.63;99897.56;410124;24;1031;-79
2022/06/17 00:39:56;;;;;;;366.93;243.00;;;;;;;20.69;65.92;99899.25;412007;24;774;-79
2022/06/17 00:40:12;;;;;;;366.67;242.90;;;;;;;20.70;65.84;99902.75;411945;24;1478;-79
2022/06/17 00:40:23;;;;;;;358.77;241.73;;;;;;;20.70;65.98;99900.09;411918;24;874;-79
2022/06/17 00:40:34;;;;;;;360.00;243.50;;;;;;;20.68;65.82;99894.91;411825;24;1511;-79
2022/06/17 00:40:44;;;;;;;360.63;243.53;;;;;;;20.68;65.96;99891.38;408244;24;1267;-79
2022/06/17 00:40:55;;;;;;;364.38;244.77;;;;;;;20.69;65.67;99891.28;410351;24;798;-79
2022/06/17 00:41:23;;;;;;;362.55;244.18;;;;;;;20.69;65.76;99888.59;412170;24;1276;-79
2022/06/17 00:41:35;;;;;;;355.48;235.85;;;;;;;20.67;66.04;99895.84;412017;24;908;-79
2022/06/17 00:41:52;;;;;;;356.77;237.93;;;;;;;20.68;66.26;99891.38;412002;24;1269;-79
2022/06/17 00:42:10;;;;;;;358.35;237.90;;;;;;;20.65;65.95;99887.16;412075;24;1054;-79
2022/06/17 00:42:21;;;;;;;358.67;239.45;;;;;;;20.65;66.04;99891.63;409990;24;1262;-79
2022/06/17 00:42:32;;;;;;;358.83;242.23;;;;;;;20.66;66.17;99890.66;415813;23;1454;-79
2022/06/17 00:42:42;;;;;;;359.65;242.38;;;;;;;20.67;66.14;99890.53;413763;23;1284;-79
2022/06/17 00:42:53;;;;;;;361.30;242.97;;;;;;;20.66;66.00;99888.84;413863;23;961;-79
2022/06/17 00:43:05;;;;;;;363.77;244.17;;;;;;;20.67;66.09;99885.22;411425;24;1226;-79
2022/06/17 00:43:30;;;;;;;363.50;242.77;;;;;;;20.69;66.37;99893.94;411855;24;825;-79
2022/06/17 00:43:42;;;;;;;360.95;242.30;;;;;;;20.68;66.20;99892.22;412470;24;893;-79
2022/06/17 00:43:53;;;;;;;360.23;241.20;;;;;;;20.68;66.34;99889.56;410170;24;832;-79
2022/06/17 00:44:25;;;;;;;359.25;239.18;;;;;;;20.69;66.47;99891.28;412118;23;962;-79
2022/06/17 00:44:38;;;;;;;356.63;237.90;;;;;;;20.69;66.31;99891.28;412084;24;1086;-79
2022/06/17 00:44:59;;;;;;;357.85;238.48;;;;;;;20.69;66.41;99888.59;410290;24;932;-79
2022/06/17 00:45:34;;;;;;;356.98;240.27;;;;;;;20.71;66.28;99892.00;408137;24;870;-79
2022/06/17 00:45:49;;;;;;;358.70;238.27;;;;;;;20.70;66.32;99894.78;411965;24;1051;-79
2022/06/17 00:46:18;;;;;;;356.77;237.80;;;;;;;20.70;66.22;99894.78;412776;23;1117;-79
2022/06/17 00:46:29;;;;;;;353.00;239.02;;;;;;;20.69;66.59;99891.28;413961;23;902;-79
2022/06/17 00:47:09;;;;;;;353.73;238.40;;;;;;;20.68;66.53;99889.56;413939;23;873;-79
2022/06/17 00:47:49;;;;;;;354.02;238.55;;;;;;;20.68;66.65;99892.22;413914;23;883;-79
2022/06/17 00:48:12;;;;;;;353.13;235.00;;;;;;;20.69;66.38;99893.94;415310;23;1190;-79
2022/06/17 00:48:25;;;;;;;356.42;241.38;;;;;;;20.69;66.31;99893.94;411882;24;837;-79
2022/06/17 00:48:40;;;;;;;359.40;243.63;;;;;;;20.70;66.58;99890.31;410038;24;1396;-79
2022/06/17 00:48:57;;;;;;;362.30;246.35;;;;;;;20.69;66.60;99893.94;411956;24;877;-79
2022/06/17 00:49:15;;;;;;;363.33;247.45;;;;;;;20.66;66.39;99888.84;412039;24;897;-79
2022/06/17 00:49:44;;;;;;;361.73;242.32;;;;;;;20.68;66.65;99892.22;413832;23;1003;-79
2022/06/17 00:50:15;;;;;;;355.98;237.77;;;;;;;20.69;66.68;99893.09;413815;23;924;-79
2022/06/17 00:50:30;;;;;;;360.80;242.73;;;;;;;20.66;66.62;99894.16;409916;24;827;-79
2022/06/17 00:50:50;;;;;;;362.40;242.65;;;;;;;20.66;66.90;99886.19;410032;24;1304;-79
2022/06/17 00:51:21;;;;;;;359.52;243.48;;;;;;;20.67;66.72;99890.53;408133;24;1416;-79
2022/06/17 00:51:44;;;;;;;356.60;239.50;;;;;;;20.67;66.92;99893.19;410064;24;926;-79
2022/06/17 00:52:05;;;;;;;357.73;241.82;;;;;;;20.68;67.07;99889.56;409877;24;984;-79
2022/06/17 00:52:38;;;;;;;358.50;241.55;;;;;;;20.62;67.06;99892.72;411953;24;1148;-80
2022/06/17 00:53:17;;;;;;;361.98;243.13;;;;;;;20.60;67.22;99889.31;406073;24;1250;-79
2022/06/17 00:53:31;;;;;;;352.13;238.82;;;;;;;20.60;66.83;99889.31;406232;24;837;-79
2022/06/17 00:53:53;;;;;;;358.02;242.20;;;;;;;20.61;67.25;99888.34;406097;24;986;-79
2022/06/17 00:54:34;;;;;;;356.77;244.30;;;;;;;20.61;67.33;99883.03;409919;24;1385;-79
2022/06/17 00:54:48;;;;;;;354.83;242.18;;;;;;;20.62;67.11;99886.53;411288;24;1948;-79
2022/06/17 00:55:02;;;;;;;359.70;244.82;;;;;;;20.62;67.45;99892.72;410051;24;1341;-79
2022/06/17 00:55:35;;;;;;;361.58;247.85;;;;;;;20.63;67.22;99886.44;409687;24;1294;-79
2022/06/17 00:56:03;;;;;;;352.20;237.07;;;;;;;20.66;67.31;99888.84;411863;24;868;-79
2022/06/17 00:56:31;;;;;;;355.84;241.94;;;;;;;20.67;67.20;99890.53;411811;24;1444;-79
2022/06/17 00:56:42;;;;;;;357.98;240.30;;;;;;;20.68;67.27;99892.22;413867;23;929;-78
2022/06/17 00:56:53;;;;;;;358.97;240.60;;;;;;;20.68;67.21;99889.56;413857;23;1214;-78
2022/06/17 00:57:36;;;;;;;360.95;241.50;;;;;;;20.67;67.01;99895.00;409862;24;837;-78
2022/06/17 00:57:47;;;;;;;354.73;238.38;;;;;;;20.64;67.73;99890.78;411486;24;1127;-79
2022/06/17 00:57:57;;;;;;;354.47;239.30;;;;;;;20.62;67.57;99890.06;410044;24;1202;-79
2022/06/17 00:58:19;;;;;;;357.30;241.85;;;;;;;20.60;67.90;99891.97;413889;23;1205;-79
2022/06/17 00:58:31;;;;;;;358.73;243.77;;;;;;;20.58;67.88;99892.09;413858;23;889;-79
2022/06/17 00:58:57;;;;;;;358.38;243.07;;;;;;;20.53;68.00;99888.09;415853;23;950;-79
2022/06/17 00:59:11;;;;;;;355.67;242.35;;;;;;;20.53;67.78;99891.59;414097;23;1339;-78
2022/06/17 00:59:23;;;;;;;359.13;244.65;;;;;;;20.54;67.70;99890.66;411978;24;864;-78
2022/06/17 00:59:35;;;;;;;359.85;245.82;;;;;;;20.52;68.01;99887.25;410062;24;1352;-78
2022/06/17 01:00:00;;;;;;;360.65;246.98;;;;;;;20.49;68.08;99892.81;412079;24;1027;-78
2022/06/17 01:00:19;;;;;;;360.33;246.35;;;;;;;20.49;68.09;99889.31;412138;24;878;-78
2022/06/17 01:00:31;;;;;;;361.60;246.07;;;;;;;20.48;68.14;99890.28;414046;23;896;-78
2022/06/17 01:00:41;;;;;;;358.95;245.70;;;;;;;20.47;67.79;99888.56;411176;24;1314;-78
2022/06/17 01:00:53;;;;;;;359.38;247.18;;;;;;;20.48;68.22;99884.94;409966;24;892;-78
2022/06/17 01:01:08;;;;;;;361.80;250.07;;;;;;;20.46;68.03;99892.19;409950;24;857;-78
2022/06/17 01:01:19;;;;;;;362.60;250.63;;;;;;;20.48;68.42;99896.44;409767;24;1472;-78
2022/06/17 01:01:38;;;;;;;361.85;247.77;;;;;;;20.47;67.94;99889.41;410075;24;869;-78
2022/06/17 01:02:05;;;;;;;362.90;246.55;;;;;;;20.47;68.35;99889.41;413774;23;901;-78
2022/06/17 01:02:16;;;;;;;359.83;240.80;;;;;;;20.46;68.55;99887.72;411976;24;844;-78
2022/06/17 01:02:28;;;;;;;358.03;240.10;;;;;;;20.46;68.65;99887.72;410166;24;1028;-78
2022/06/17 01:02:48;;;;;;;359.10;242.10;;;;;;;20.43;68.50;99887.13;410097;24;920;-78
2022/06/17 01:03:03;;;;;;;359.67;240.52;;;;;;;20.45;68.59;99883.38;411779;24;1092;-78
2022/06/17 01:03:22;;;;;;;358.63;236.40;;;;;;;20.45;68.53;99885.19;411837;24;1438;-78
2022/06/17 01:03:36;;;;;;;356.80;237.27;;;;;;;20.42;69.35;99886.28;409792;24;937;-78
2022/06/17 01:03:46;;;;;;;357.85;241.45;;;;;;;20.40;69.45;99882.03;409953;24;826;-78
2022/06/17 01:04:00;;;;;;;357.13;239.23;;;;;;;20.43;69.55;99881.78;413735;23;1459;-78
2022/06/17 01:04:10;;;;;;;356.77;240.02;;;;;;;20.41;69.28;99889.03;415957;23;813;-78
2022/06/17 01:04:25;;;;;;;359.90;240.88;;;;;;;20.40;69.68;99882.03;412002;23;1287;-78